Loraine, North Dakota
Current Conditions -  °F | °C
As of 9:58 PM on Saturday 25 Oct 2014 (Local Time) from KMIB Reporting Station
Clear Clear  
Wind Chill: 35°   Ceiling: Unl
Heat Index: 40°   Visibility: 10mi
Dew Point: 30°   Wind: 7mph
Humidity: 68%   Direction: 150°SSE
Pressure: 29.91"   Gusts: NA
Location:  48.7974°N, 101.602°W
Report Text: KMIB 260258Z AUTO 15006KT 10SM CLR 04/M01 A2991 RMK AO2 SLP147 T00441011 57023 $
Loading
Personal Weather Stations






























Interactive Weather Map
Tropical Storm Tracking
New forecast layout! Learn more

10-Day Weather Forecast

Advertisements
Track Severe Weather on mobile